sensor_id;sensor_type;location;lat;lon;timestamp;temperature;humidity
22212;DHT22;11275;52.488;13.462;2022-10-28T00:00:31;13.90;99.90
22212;DHT22;11275;52.488;13.462;2022-10-28T00:02:59;14.00;99.90
22212;DHT22;11275;52.488;13.462;2022-10-28T00:05:26;14.00;99.90
22212;DHT22;11275;52.488;13.462;2022-10-28T00:07:52;14.00;99.90
22212;DHT22;11275;52.488;13.462;2022-10-28T00:10:17;14.00;99.90
22212;DHT22;11275;52.488;13.462;2022-10-28T00:12:43;14.00;99.90
22212;DHT22;11275;52.488;13.462;2022-10-28T00:15:09;14.00;99.90
22212;DHT22;11275;52.488;13.462;2022-10-28T00:17:34;14.00;99.90
22212;DHT22;11275;52.488;13.462;2022-10-28T00:20:00;14.10;99.90
22212;DHT22;11275;52.488;13.462;2022-10-28T00:22:26;14.10;99.90
22212;DHT22;11275;52.488;13.462;2022-10-28T00:24:52;14.10;99.90
22212;DHT22;11275;52.488;13.462;2022-10-28T00:27:17;14.10;99.90
22212;DHT22;11275;52.488;13.462;2022-10-28T00:29:43;14.00;99.90
22212;DHT22;11275;52.488;13.462;2022-10-28T00:32:09;14.00;99.90
22212;DHT22;11275;52.488;13.462;2022-10-28T00:34:34;13.90;99.90
22212;DHT22;11275;52.488;13.462;2022-10-28T00:37:00;13.90;99.90
22212;DHT22;11275;52.488;13.462;2022-10-28T00:39:25;14.00;99.90
22212;DHT22;11275;52.488;13.462;2022-10-28T00:41:59;14.00;99.90
22212;DHT22;11275;52.488;13.462;2022-10-28T00:44:54;14.00;99.90
22212;DHT22;11275;52.488;13.462;2022-10-28T00:52:47;13.90;99.90
22212;DHT22;11275;52.488;13.462;2022-10-28T00:55:17;13.90;99.90
22212;DHT22;11275;52.488;13.462;2022-10-28T00:57:44;14.00;99.90
22212;DHT22;11275;52.488;13.462;2022-10-28T01:00:11;13.90;99.90
22212;DHT22;11275;52.488;13.462;2022-10-28T01:02:47;14.00;99.90
22212;DHT22;11275;52.488;13.462;2022-10-28T01:05:18;14.00;99.90
22212;DHT22;11275;52.488;13.462;2022-10-28T01:07:45;14.00;99.90
22212;DHT22;11275;52.488;13.462;2022-10-28T01:10:11;14.00;99.90
22212;DHT22;11275;52.488;13.462;2022-10-28T01:18:25;14.10;99.90
22212;DHT22;11275;52.488;13.462;2022-10-28T01:34:20;14.10;99.90
22212;DHT22;11275;52.488;13.462;2022-10-28T01:39:39;14.10;99.90
22212;DHT22;11275;52.488;13.462;2022-10-28T01:47:31;14.00;99.90
22212;DHT22;11275;52.488;13.462;2022-10-28T01:52:31;14.00;99.90
22212;DHT22;11275;52.488;13.462;2022-10-28T01:55:21;14.00;99.90
22212;DHT22;11275;52.488;13.462;2022-10-28T01:57:47;14.00;99.90
22212;DHT22;11275;52.488;13.462;2022-10-28T02:00:15;14.00;99.90
22212;DHT22;11275;52.488;13.462;2022-10-28T02:02:41;14.00;99.90
22212;DHT22;11275;52.488;13.462;2022-10-28T02:05:40;14.00;99.90
22212;DHT22;11275;52.488;13.462;2022-10-28T02:13:38;13.90;99.90
22212;DHT22;11275;52.488;13.462;2022-10-28T02:21:37;13.90;99.90
22212;DHT22;11275;52.488;13.462;2022-10-28T02:26:46;13.80;99.90
22212;DHT22;11275;52.488;13.462;2022-10-28T02:32:04;13.70;99.90
22212;DHT22;11275;52.488;13.462;2022-10-28T02:34:38;13.70;99.90
22212;DHT22;11275;52.488;13.462;2022-10-28T02:37:12;13.70;99.90
22212;DHT22;11275;52.488;13.462;2022-10-28T02:39:46;13.70;99.90
22212;DHT22;11275;52.488;13.462;2022-10-28T02:44:47;13.60;99.90
22212;DHT22;11275;52.488;13.462;2022-10-28T02:47:17;13.60;99.90
22212;DHT22;11275;52.488;13.462;2022-10-28T02:49:46;13.70;99.90
22212;DHT22;11275;52.488;13.462;2022-10-28T02:52:16;13.70;99.90
22212;DHT22;11275;52.488;13.462;2022-10-28T02:54:52;13.70;99.90
22212;DHT22;11275;52.488;13.462;2022-10-28T02:57:24;13.60;99.90
22212;DHT22;11275;52.488;13.462;2022-10-28T02:59:53;13.60;99.90
22212;DHT22;11275;52.488;13.462;2022-10-28T03:02:19;13.60;99.90
22212;DHT22;11275;52.488;13.462;2022-10-28T03:04:44;13.60;99.90
22212;DHT22;11275;52.488;13.462;2022-10-28T03:07:10;13.60;99.90
22212;DHT22;11275;52.488;13.462;2022-10-28T03:09:35;13.60;99.90
22212;DHT22;11275;52.488;13.462;2022-10-28T03:12:01;13.60;99.90
22212;DHT22;11275;52.488;13.462;2022-10-28T03:14:27;13.60;99.90
22212;DHT22;11275;52.488;13.462;2022-10-28T03:16:52;13.60;99.90
22212;DHT22;11275;52.488;13.462;2022-10-28T03:19:18;13.60;99.90
22212;DHT22;11275;52.488;13.462;2022-10-28T03:21:43;13.50;99.90
22212;DHT22;11275;52.488;13.462;2022-10-28T03:24:09;13.50;99.90
22212;DHT22;11275;52.488;13.462;2022-10-28T03:26:34;13.50;99.90
22212;DHT22;11275;52.488;13.462;2022-10-28T03:29:00;13.50;99.90
22212;DHT22;11275;52.488;13.462;2022-10-28T03:31:26;13.40;99.90
22212;DHT22;11275;52.488;13.462;2022-10-28T03:33:51;13.40;99.90
22212;DHT22;11275;52.488;13.462;2022-10-28T03:36:17;13.40;99.90
22212;DHT22;11275;52.488;13.462;2022-10-28T03:38:42;13.40;99.90
22212;DHT22;11275;52.488;13.462;2022-10-28T03:41:08;13.40;99.90
22212;DHT22;11275;52.488;13.462;2022-10-28T03:43:33;13.40;99.90
22212;DHT22;11275;52.488;13.462;2022-10-28T03:45:59;13.40;99.90
22212;DHT22;11275;52.488;13.462;2022-10-28T03:48:24;13.40;99.90
22212;DHT22;11275;52.488;13.462;2022-10-28T03:50:54;13.30;99.90
22212;DHT22;11275;52.488;13.462;2022-10-28T03:53:20;13.40;99.90
22212;DHT22;11275;52.488;13.462;2022-10-28T03:55:58;13.30;99.90
22212;DHT22;11275;52.488;13.462;2022-10-28T03:58:24;13.30;99.90
22212;DHT22;11275;52.488;13.462;2022-10-28T04:00:51;13.30;99.90
22212;DHT22;11275;52.488;13.462;2022-10-28T04:03:19;13.30;99.90
22212;DHT22;11275;52.488;13.462;2022-10-28T04:05:45;13.30;99.90
22212;DHT22;11275;52.488;13.462;2022-10-28T04:08:13;13.30;99.90
22212;DHT22;11275;52.488;13.462;2022-10-28T04:10:38;13.30;99.90
22212;DHT22;11275;52.488;13.462;2022-10-28T04:13:05;13.30;99.90
22212;DHT22;11275;52.488;13.462;2022-10-28T04:15:31;13.20;99.90
22212;DHT22;11275;52.488;13.462;2022-10-28T04:17:57;13.10;99.90
22212;DHT22;11275;52.488;13.462;2022-10-28T04:20:23;13.00;99.90
22212;DHT22;11275;52.488;13.462;2022-10-28T04:22:49;13.00;99.90
22212;DHT22;11275;52.488;13.462;2022-10-28T04:25:14;13.00;99.90
22212;DHT22;11275;52.488;13.462;2022-10-28T04:27:40;13.00;99.90
22212;DHT22;11275;52.488;13.462;2022-10-28T04:30:06;13.10;99.90
22212;DHT22;11275;52.488;13.462;2022-10-28T04:32:32;13.10;99.90
22212;DHT22;11275;52.488;13.462;2022-10-28T04:34:57;13.10;99.90
22212;DHT22;11275;52.488;13.462;2022-10-28T04:37:23;13.10;99.90
22212;DHT22;11275;52.488;13.462;2022-10-28T04:39:48;13.10;99.90
22212;DHT22;11275;52.488;13.462;2022-10-28T04:42:14;13.10;99.90
22212;DHT22;11275;52.488;13.462;2022-10-28T04:44:40;13.00;99.90
22212;DHT22;11275;52.488;13.462;2022-10-28T04:47:05;13.00;99.90
22212;DHT22;11275;52.488;13.462;2022-10-28T04:49:31;12.90;99.90
22212;DHT22;11275;52.488;13.462;2022-10-28T04:51:56;12.90;99.90
22212;DHT22;11275;52.488;13.462;2022-10-28T04:54:22;12.90;99.90
22212;DHT22;11275;52.488;13.462;2022-10-28T04:56:48;13.00;99.90
22212;DHT22;11275;52.488;13.462;2022-10-28T04:59:15;13.00;99.90
22212;DHT22;11275;52.488;13.462;2022-10-28T05:01:40;13.00;99.90
22212;DHT22;11275;52.488;13.462;2022-10-28T05:04:06;13.00;99.90
22212;DHT22;11275;52.488;13.462;2022-10-28T05:06:32;13.00;99.90
22212;DHT22;11275;52.488;13.462;2022-10-28T05:08:57;12.90;99.90
22212;DHT22;11275;52.488;13.462;2022-10-28T05:11:23;12.90;99.90
22212;DHT22;11275;52.488;13.462;2022-10-28T05:13:48;12.90;99.90
22212;DHT22;11275;52.488;13.462;2022-10-28T05:16:17;12.90;99.90
22212;DHT22;11275;52.488;13.462;2022-10-28T05:18:43;12.90;99.90
22212;DHT22;11275;52.488;13.462;2022-10-28T05:21:08;12.90;99.90
22212;DHT22;11275;52.488;13.462;2022-10-28T05:23:34;12.90;99.90
22212;DHT22;11275;52.488;13.462;2022-10-28T05:25:59;12.90;99.90
22212;DHT22;11275;52.488;13.462;2022-10-28T05:28:25;12.90;99.90
22212;DHT22;11275;52.488;13.462;2022-10-28T05:30:51;12.90;99.90
22212;DHT22;11275;52.488;13.462;2022-10-28T05:33:16;13.00;99.90
22212;DHT22;11275;52.488;13.462;2022-10-28T05:35:42;13.00;99.90
22212;DHT22;11275;52.488;13.462;2022-10-28T05:38:07;13.00;99.90
22212;DHT22;11275;52.488;13.462;2022-10-28T05:40:33;12.90;99.90
22212;DHT22;11275;52.488;13.462;2022-10-28T05:43:00;12.90;99.90
22212;DHT22;11275;52.488;13.462;2022-10-28T05:45:26;12.90;99.90
22212;DHT22;11275;52.488;13.462;2022-10-28T05:47:52;13.00;99.90
22212;DHT22;11275;52.488;13.462;2022-10-28T05:50:18;12.90;99.90
22212;DHT22;11275;52.488;13.462;2022-10-28T05:52:46;12.90;99.90
22212;DHT22;11275;52.488;13.462;2022-10-28T05:55:12;13.00;99.90
22212;DHT22;11275;52.488;13.462;2022-10-28T05:57:37;13.00;99.90
22212;DHT22;11275;52.488;13.462;2022-10-28T06:00:04;13.00;99.90
22212;DHT22;11275;52.488;13.462;2022-10-28T06:02:29;13.10;99.90
22212;DHT22;11275;52.488;13.462;2022-10-28T06:04:55;13.00;99.90
22212;DHT22;11275;52.488;13.462;2022-10-28T06:07:21;13.00;99.90
22212;DHT22;11275;52.488;13.462;2022-10-28T06:09:54;13.00;99.90
22212;DHT22;11275;52.488;13.462;2022-10-28T06:12:19;13.10;99.90
22212;DHT22;11275;52.488;13.462;2022-10-28T06:14:45;13.10;99.90
22212;DHT22;11275;52.488;13.462;2022-10-28T06:17:10;13.20;99.90
22212;DHT22;11275;52.488;13.462;2022-10-28T06:19:36;13.20;99.90
22212;DHT22;11275;52.488;13.462;2022-10-28T06:22:01;13.40;99.90
22212;DHT22;11275;52.488;13.462;2022-10-28T06:24:27;13.40;99.90
22212;DHT22;11275;52.488;13.462;2022-10-28T06:26:55;13.50;99.90
22212;DHT22;11275;52.488;13.462;2022-10-28T06:29:20;13.50;99.90
22212;DHT22;11275;52.488;13.462;2022-10-28T06:31:46;13.60;99.90
22212;DHT22;11275;52.488;13.462;2022-10-28T06:34:12;13.60;99.90
22212;DHT22;11275;52.488;13.462;2022-10-28T06:36:38;13.60;99.90
22212;DHT22;11275;52.488;13.462;2022-10-28T06:39:04;13.50;99.90
22212;DHT22;11275;52.488;13.462;2022-10-28T06:41:30;13.50;99.90
22212;DHT22;11275;52.488;13.462;2022-10-28T06:43:56;13.50;99.90
22212;DHT22;11275;52.488;13.462;2022-10-28T06:46:22;13.40;99.90
22212;DHT22;11275;52.488;13.462;2022-10-28T06:48:47;13.40;99.90
22212;DHT22;11275;52.488;13.462;2022-10-28T06:51:13;13.40;99.90
22212;DHT22;11275;52.488;13.462;2022-10-28T06:53:41;13.40;99.90
22212;DHT22;11275;52.488;13.462;2022-10-28T06:56:08;13.40;99.90
22212;DHT22;11275;52.488;13.462;2022-10-28T06:58:34;13.60;99.90
22212;DHT22;11275;52.488;13.462;2022-10-28T07:01:04;13.60;99.90
22212;DHT22;11275;52.488;13.462;2022-10-28T07:03:29;13.60;99.90
22212;DHT22;11275;52.488;13.462;2022-10-28T07:05:57;13.60;99.90
22212;DHT22;11275;52.488;13.462;2022-10-28T07:08:23;13.70;99.90
22212;DHT22;11275;52.488;13.462;2022-10-28T07:10:54;13.70;99.90
22212;DHT22;11275;52.488;13.462;2022-10-28T07:13:21;13.80;99.90
22212;DHT22;11275;52.488;13.462;2022-10-28T07:15:54;13.80;99.90
22212;DHT22;11275;52.488;13.462;2022-10-28T07:18:20;13.70;99.90
22212;DHT22;11275;52.488;13.462;2022-10-28T07:20:46;13.70;99.90
22212;DHT22;11275;52.488;13.462;2022-10-28T07:23:12;13.70;99.90
22212;DHT22;11275;52.488;13.462;2022-10-28T07:25:38;13.70;99.90
22212;DHT22;11275;52.488;13.462;2022-10-28T07:28:03;13.70;99.90
22212;DHT22;11275;52.488;13.462;2022-10-28T07:30:30;13.70;99.90
22212;DHT22;11275;52.488;13.462;2022-10-28T07:32:56;13.70;99.90
22212;DHT22;11275;52.488;13.462;2022-10-28T07:35:29;13.70;99.90
22212;DHT22;11275;52.488;13.462;2022-10-28T07:37:56;13.70;99.90
22212;DHT22;11275;52.488;13.462;2022-10-28T07:40:22;13.80;99.90
22212;DHT22;11275;52.488;13.462;2022-10-28T07:42:48;13.80;99.90
22212;DHT22;11275;52.488;13.462;2022-10-28T07:45:13;14.00;99.90
22212;DHT22;11275;52.488;13.462;2022-10-28T07:47:39;14.00;99.90
22212;DHT22;11275;52.488;13.462;2022-10-28T07:50:06;14.00;99.90
22212;DHT22;11275;52.488;13.462;2022-10-28T07:52:39;14.00;99.90
22212;DHT22;11275;52.488;13.462;2022-10-28T07:55:05;14.10;99.90
22212;DHT22;11275;52.488;13.462;2022-10-28T07:57:33;14.20;99.90
22212;DHT22;11275;52.488;13.462;2022-10-28T07:59:59;14.30;99.90
22212;DHT22;11275;52.488;13.462;2022-10-28T08:02:28;14.40;99.90
22212;DHT22;11275;52.488;13.462;2022-10-28T08:04:54;14.50;99.90
22212;DHT22;11275;52.488;13.462;2022-10-28T08:07:21;14.60;99.90
22212;DHT22;11275;52.488;13.462;2022-10-28T08:09:47;14.60;99.90
22212;DHT22;11275;52.488;13.462;2022-10-28T08:12:14;14.70;99.90
22212;DHT22;11275;52.488;13.462;2022-10-28T08:14:39;14.70;99.90
22212;DHT22;11275;52.488;13.462;2022-10-28T08:17:05;14.70;99.90
22212;DHT22;11275;52.488;13.462;2022-10-28T08:19:31;14.80;99.90
22212;DHT22;11275;52.488;13.462;2022-10-28T08:21:57;14.80;99.90
22212;DHT22;11275;52.488;13.462;2022-10-28T08:24:23;14.90;99.90
22212;DHT22;11275;52.488;13.462;2022-10-28T08:26:49;15.00;99.90
22212;DHT22;11275;52.488;13.462;2022-10-28T08:29:15;15.10;99.90
22212;DHT22;11275;52.488;13.462;2022-10-28T08:31:40;15.30;99.90
22212;DHT22;11275;52.488;13.462;2022-10-28T08:34:06;15.40;99.90
22212;DHT22;11275;52.488;13.462;2022-10-28T08:36:32;15.70;99.90
22212;DHT22;11275;52.488;13.462;2022-10-28T08:38:58;15.80;99.90
22212;DHT22;11275;52.488;13.462;2022-10-28T08:41:55;16.00;99.90
22212;DHT22;11275;52.488;13.462;2022-10-28T08:44:48;16.10;99.90
22212;DHT22;11275;52.488;13.462;2022-10-28T08:49:54;16.20;99.90
22212;DHT22;11275;52.488;13.462;2022-10-28T08:55:03;16.00;99.90
22212;DHT22;11275;52.488;13.462;2022-10-28T08:59:58;15.90;99.90
22212;DHT22;11275;52.488;13.462;2022-10-28T09:02:29;15.90;99.90
22212;DHT22;11275;52.488;13.462;2022-10-28T09:05:04;15.90;99.90
22212;DHT22;11275;52.488;13.462;2022-10-28T09:07:31;16.00;99.90
22212;DHT22;11275;52.488;13.462;2022-10-28T09:09:58;16.10;99.90
22212;DHT22;11275;52.488;13.462;2022-10-28T09:20:52;16.20;99.90
22212;DHT22;11275;52.488;13.462;2022-10-28T09:23:23;16.10;99.90
22212;DHT22;11275;52.488;13.462;2022-10-28T09:31:24;16.20;99.90
22212;DHT22;11275;52.488;13.462;2022-10-28T09:36:44;16.40;99.90
22212;DHT22;11275;52.488;13.462;2022-10-28T09:39:25;16.40;99.90
22212;DHT22;11275;52.488;13.462;2022-10-28T09:41:52;16.40;99.90
22212;DHT22;11275;52.488;13.462;2022-10-28T09:44:35;16.40;99.90
22212;DHT22;11275;52.488;13.462;2022-10-28T09:47:14;16.50;99.90
22212;DHT22;11275;52.488;13.462;2022-10-28T09:49:40;16.60;99.90
22212;DHT22;11275;52.488;13.462;2022-10-28T09:54:43;16.60;99.90
22212;DHT22;11275;52.488;13.462;2022-10-28T09:57:10;16.70;99.90
22212;DHT22;11275;52.488;13.462;2022-10-28T09:59:36;16.80;99.90
22212;DHT22;11275;52.488;13.462;2022-10-28T10:02:05;16.80;99.90
22212;DHT22;11275;52.488;13.462;2022-10-28T10:04:43;16.90;99.90
22212;DHT22;11275;52.488;13.462;2022-10-28T10:07:11;17.00;99.90
22212;DHT22;11275;52.488;13.462;2022-10-28T10:09:39;17.20;99.90
22212;DHT22;11275;52.488;13.462;2022-10-28T10:12:07;17.40;99.90
22212;DHT22;11275;52.488;13.462;2022-10-28T10:14:47;17.40;99.90
22212;DHT22;11275;52.488;13.462;2022-10-28T10:17:43;17.50;99.90
22212;DHT22;11275;52.488;13.462;2022-10-28T10:20:15;17.50;99.90
22212;DHT22;11275;52.488;13.462;2022-10-28T10:22:42;17.50;99.90
22212;DHT22;11275;52.488;13.462;2022-10-28T10:28:03;17.90;99.90
22212;DHT22;11275;52.488;13.462;2022-10-28T10:30:33;17.80;99.90
22212;DHT22;11275;52.488;13.462;2022-10-28T10:33:01;17.90;99.90
22212;DHT22;11275;52.488;13.462;2022-10-28T10:35:32;18.00;99.90
22212;DHT22;11275;52.488;13.462;2022-10-28T10:38:01;18.00;99.90
22212;DHT22;11275;52.488;13.462;2022-10-28T10:40:29;17.90;99.90
22212;DHT22;11275;52.488;13.462;2022-10-28T10:45:38;17.90;99.90
22212;DHT22;11275;52.488;13.462;2022-10-28T10:48:14;17.90;99.90
22212;DHT22;11275;52.488;13.462;2022-10-28T10:50:42;17.90;99.90
22212;DHT22;11275;52.488;13.462;2022-10-28T10:53:24;17.90;99.90
22212;DHT22;11275;52.488;13.462;2022-10-28T10:55:53;18.10;99.90
22212;DHT22;11275;52.488;13.462;2022-10-28T10:58:22;18.10;99.90
22212;DHT22;11275;52.488;13.462;2022-10-28T11:00:50;18.10;99.90
22212;DHT22;11275;52.488;13.462;2022-10-28T11:03:50;18.20;99.90
22212;DHT22;11275;52.488;13.462;2022-10-28T11:06:26;18.20;99.90
22212;DHT22;11275;52.488;13.462;2022-10-28T11:09:02;18.20;99.90
22212;DHT22;11275;52.488;13.462;2022-10-28T11:11:38;18.30;99.90
22212;DHT22;11275;52.488;13.462;2022-10-28T11:16:53;18.30;99.90
22212;DHT22;11275;52.488;13.462;2022-10-28T11:19:27;18.40;99.90
22212;DHT22;11275;52.488;13.462;2022-10-28T11:29:52;18.60;99.90
22212;DHT22;11275;52.488;13.462;2022-10-28T11:32:31;18.60;99.90
22212;DHT22;11275;52.488;13.462;2022-10-28T11:41:15;18.70;99.90
22212;DHT22;11275;52.488;13.462;2022-10-28T11:43:49;18.90;99.90
22212;DHT22;11275;52.488;13.462;2022-10-28T11:57:45;19.00;99.90
22212;DHT22;11275;52.488;13.462;2022-10-28T12:05:43;19.20;99.90
22212;DHT22;11275;52.488;13.462;2022-10-28T12:08:41;19.30;99.90
22212;DHT22;11275;52.488;13.462;2022-10-28T12:11:25;19.50;99.90
22212;DHT22;11275;52.488;13.462;2022-10-28T12:19:23;19.70;99.90
22212;DHT22;11275;52.488;13.462;2022-10-28T12:22:09;19.90;99.90
22212;DHT22;11275;52.488;13.462;2022-10-28T12:24:39;20.00;99.90
22212;DHT22;11275;52.488;13.462;2022-10-28T12:27:28;20.20;99.90
22212;DHT22;11275;52.488;13.462;2022-10-28T12:30:22;20.20;99.90
22212;DHT22;11275;52.488;13.462;2022-10-28T12:33:10;20.10;99.90
22212;DHT22;11275;52.488;13.462;2022-10-28T12:35:43;20.10;99.90
22212;DHT22;11275;52.488;13.462;2022-10-28T12:38:16;20.00;99.90
22212;DHT22;11275;52.488;13.462;2022-10-28T12:40:52;20.00;99.90
22212;DHT22;11275;52.488;13.462;2022-10-28T12:43:41;20.00;99.90
22212;DHT22;11275;52.488;13.462;2022-10-28T12:46:29;19.90;99.90
22212;DHT22;11275;52.488;13.462;2022-10-28T12:49:01;20.00;99.90
22212;DHT22;11275;52.488;13.462;2022-10-28T12:51:39;19.90;99.90
22212;DHT22;11275;52.488;13.462;2022-10-28T12:56:47;19.90;99.90
22212;DHT22;11275;52.488;13.462;2022-10-28T13:01:46;20.00;99.90
22212;DHT22;11275;52.488;13.462;2022-10-28T13:04:13;20.00;99.90
22212;DHT22;11275;52.488;13.462;2022-10-28T13:09:49;19.90;99.90
22212;DHT22;11275;52.488;13.462;2022-10-28T13:12:27;20.00;99.90
22212;DHT22;11275;52.488;13.462;2022-10-28T13:15:15;20.00;99.90
22212;DHT22;11275;52.488;13.462;2022-10-28T13:20:21;20.00;99.90
22212;DHT22;11275;52.488;13.462;2022-10-28T13:25:39;20.10;99.90
22212;DHT22;11275;52.488;13.462;2022-10-28T13:28:34;20.10;99.90
22212;DHT22;11275;52.488;13.462;2022-10-28T13:31:03;20.10;99.90
22212;DHT22;11275;52.488;13.462;2022-10-28T13:33:31;20.10;99.90
22212;DHT22;11275;52.488;13.462;2022-10-28T13:36:14;20.10;99.90
22212;DHT22;11275;52.488;13.462;2022-10-28T13:38:41;20.10;99.90
22212;DHT22;11275;52.488;13.462;2022-10-28T13:41:10;20.10;99.90
22212;DHT22;11275;52.488;13.462;2022-10-28T13:49:24;20.10;99.90
22212;DHT22;11275;52.488;13.462;2022-10-28T13:51:58;20.10;99.90
22212;DHT22;11275;52.488;13.462;2022-10-28T13:54:50;20.10;99.90
22212;DHT22;11275;52.488;13.462;2022-10-28T13:59:52;20.10;99.90
22212;DHT22;11275;52.488;13.462;2022-10-28T14:02:40;20.10;99.90
22212;DHT22;11275;52.488;13.462;2022-10-28T14:05:09;20.10;99.90
22212;DHT22;11275;52.488;13.462;2022-10-28T14:07:39;20.20;99.90
22212;DHT22;11275;52.488;13.462;2022-10-28T14:13:01;20.20;99.90
22212;DHT22;11275;52.488;13.462;2022-10-28T14:15:35;20.20;99.90
22212;DHT22;11275;52.488;13.462;2022-10-28T14:20:42;20.20;99.90
22212;DHT22;11275;52.488;13.462;2022-10-28T14:49:30;20.10;99.90
22212;DHT22;11275;52.488;13.462;2022-10-28T14:52:03;20.10;99.90
22212;DHT22;11275;52.488;13.462;2022-10-28T14:54:47;20.10;99.90
22212;DHT22;11275;52.488;13.462;2022-10-28T14:57:15;20.00;99.90
22212;DHT22;11275;52.488;13.462;2022-10-28T14:59:46;20.00;99.90
22212;DHT22;11275;52.488;13.462;2022-10-28T15:04:44;20.00;99.90
22212;DHT22;11275;52.488;13.462;2022-10-28T15:07:13;20.00;99.90
22212;DHT22;11275;52.488;13.462;2022-10-28T15:09:39;20.00;99.90
22212;DHT22;11275;52.488;13.462;2022-10-28T15:12:11;20.00;99.90
22212;DHT22;11275;52.488;13.462;2022-10-28T15:14:49;19.90;99.90
22212;DHT22;11275;52.488;13.462;2022-10-28T15:17:25;19.90;99.90
22212;DHT22;11275;52.488;13.462;2022-10-28T15:19:54;19.90;99.90
22212;DHT22;11275;52.488;13.462;2022-10-28T15:25:03;19.80;99.90
22212;DHT22;11275;52.488;13.462;2022-10-28T15:27:31;19.80;99.90
22212;DHT22;11275;52.488;13.462;2022-10-28T15:29:57;19.80;99.90
22212;DHT22;11275;52.488;13.462;2022-10-28T15:32:25;19.80;99.90
22212;DHT22;11275;52.488;13.462;2022-10-28T15:34:51;19.80;99.90
22212;DHT22;11275;52.488;13.462;2022-10-28T15:37:18;19.80;99.90
22212;DHT22;11275;52.488;13.462;2022-10-28T15:39:46;19.70;99.90
22212;DHT22;11275;52.488;13.462;2022-10-28T15:44:56;19.70;99.90
22212;DHT22;11275;52.488;13.462;2022-10-28T15:47:29;19.60;99.90
22212;DHT22;11275;52.488;13.462;2022-10-28T15:52:51;19.60;99.90
22212;DHT22;11275;52.488;13.462;2022-10-28T16:00:23;19.50;99.90
22212;DHT22;11275;52.488;13.462;2022-10-28T16:02:56;19.50;99.90
22212;DHT22;11275;52.488;13.462;2022-10-28T16:07:57;19.50;99.90
22212;DHT22;11275;52.488;13.462;2022-10-28T16:10:22;19.40;99.90
22212;DHT22;11275;52.488;13.462;2022-10-28T16:12:48;19.40;99.90
22212;DHT22;11275;52.488;13.462;2022-10-28T16:15:15;19.40;99.90
22212;DHT22;11275;52.488;13.462;2022-10-28T16:17:41;19.40;99.90
22212;DHT22;11275;52.488;13.462;2022-10-28T16:20:14;19.30;99.90
22212;DHT22;11275;52.488;13.462;2022-10-28T16:22:42;19.30;99.90
22212;DHT22;11275;52.488;13.462;2022-10-28T16:25:17;19.30;99.90
22212;DHT22;11275;52.488;13.462;2022-10-28T16:27:44;19.20;99.90
22212;DHT22;11275;52.488;13.462;2022-10-28T16:30:10;19.30;99.90
22212;DHT22;11275;52.488;13.462;2022-10-28T16:32:38;19.20;99.90
22212;DHT22;11275;52.488;13.462;2022-10-28T16:37:41;19.20;99.90
22212;DHT22;11275;52.488;13.462;2022-10-28T16:40:07;19.20;99.90
22212;DHT22;11275;52.488;13.462;2022-10-28T16:42:35;19.10;99.90
22212;DHT22;11275;52.488;13.462;2022-10-28T16:45:02;19.10;99.90
22212;DHT22;11275;52.488;13.462;2022-10-28T16:47:28;19.20;99.90
22212;DHT22;11275;52.488;13.462;2022-10-28T16:49:54;19.20;99.90
22212;DHT22;11275;52.488;13.462;2022-10-28T16:52:21;19.10;99.90
22212;DHT22;11275;52.488;13.462;2022-10-28T16:54:49;19.10;99.90
22212;DHT22;11275;52.488;13.462;2022-10-28T16:57:15;19.10;99.90
22212;DHT22;11275;52.488;13.462;2022-10-28T16:59:41;19.10;99.90
22212;DHT22;11275;52.488;13.462;2022-10-28T17:02:32;19.00;99.90
22212;DHT22;11275;52.488;13.462;2022-10-28T17:07:31;19.00;99.90
22212;DHT22;11275;52.488;13.462;2022-10-28T17:09:56;19.00;99.90
22212;DHT22;11275;52.488;13.462;2022-10-28T17:12:24;18.90;99.90
22212;DHT22;11275;52.488;13.462;2022-10-28T17:14:51;18.90;99.90
22212;DHT22;11275;52.488;13.462;2022-10-28T17:17:16;18.90;99.90
22212;DHT22;11275;52.488;13.462;2022-10-28T17:19:43;18.90;99.90
22212;DHT22;11275;52.488;13.462;2022-10-28T17:22:10;18.90;99.90
22212;DHT22;11275;52.488;13.462;2022-10-28T17:24:36;18.90;99.90
22212;DHT22;11275;52.488;13.462;2022-10-28T17:27:03;18.80;99.90
22212;DHT22;11275;52.488;13.462;2022-10-28T17:29:28;18.80;99.90
22212;DHT22;11275;52.488;13.462;2022-10-28T17:31:54;18.80;99.90
22212;DHT22;11275;52.488;13.462;2022-10-28T17:34:20;18.80;99.90
22212;DHT22;11275;52.488;13.462;2022-10-28T17:36:45;18.80;99.90
22212;DHT22;11275;52.488;13.462;2022-10-28T17:39:11;18.70;99.90
22212;DHT22;11275;52.488;13.462;2022-10-28T17:41:37;18.70;99.90
22212;DHT22;11275;52.488;13.462;2022-10-28T17:44:02;18.70;99.90
22212;DHT22;11275;52.488;13.462;2022-10-28T17:46:28;18.70;99.90
22212;DHT22;11275;52.488;13.462;2022-10-28T17:48:54;18.70;99.90
22212;DHT22;11275;52.488;13.462;2022-10-28T17:51:19;18.70;99.90
22212;DHT22;11275;52.488;13.462;2022-10-28T17:53:52;18.70;99.90
22212;DHT22;11275;52.488;13.462;2022-10-28T17:56:18;18.70;99.90
22212;DHT22;11275;52.488;13.462;2022-10-28T17:58:43;18.70;99.90
22212;DHT22;11275;52.488;13.462;2022-10-28T18:01:10;18.60;99.90
22212;DHT22;11275;52.488;13.462;2022-10-28T18:03:36;18.60;99.90
22212;DHT22;11275;52.488;13.462;2022-10-28T18:06:09;18.60;99.90
22212;DHT22;11275;52.488;13.462;2022-10-28T18:08:37;18.60;99.90
22212;DHT22;11275;52.488;13.462;2022-10-28T18:11:04;18.60;99.90
22212;DHT22;11275;52.488;13.462;2022-10-28T18:13:32;18.50;99.90
22212;DHT22;11275;52.488;13.462;2022-10-28T18:18:33;18.50;99.90
22212;DHT22;11275;52.488;13.462;2022-10-28T18:20:59;18.50;99.90
22212;DHT22;11275;52.488;13.462;2022-10-28T18:23:25;18.50;99.90
22212;DHT22;11275;52.488;13.462;2022-10-28T18:28:24;18.50;99.90
22212;DHT22;11275;52.488;13.462;2022-10-28T18:30:53;18.50;99.90
22212;DHT22;11275;52.488;13.462;2022-10-28T18:33:18;18.50;99.90
22212;DHT22;11275;52.488;13.462;2022-10-28T18:35:44;18.50;99.90
22212;DHT22;11275;52.488;13.462;2022-10-28T18:38:10;18.50;99.90
22212;DHT22;11275;52.488;13.462;2022-10-28T18:40:35;18.50;99.90
22212;DHT22;11275;52.488;13.462;2022-10-28T18:43:01;18.50;99.90
22212;DHT22;11275;52.488;13.462;2022-10-28T18:45:26;18.50;99.90
22212;DHT22;11275;52.488;13.462;2022-10-28T18:47:52;18.50;99.90
22212;DHT22;11275;52.488;13.462;2022-10-28T18:50:17;18.40;99.90
22212;DHT22;11275;52.488;13.462;2022-10-28T18:52:43;18.40;99.90
22212;DHT22;11275;52.488;13.462;2022-10-28T18:55:09;18.50;99.90